Strona główna
METAR-TAF:

Lotnisko :

Albert, Francja

Szerokość geograficzna: 49-58-21N, Długość geograficzna: 002-41-29E, wysokość: 111 m

Aktualna obserwacja pogody

Raport powstał 33 minut temu, godzina 11:30 UTC
Wiatr 13 kt od zachodnio-południowy zachód, zmienny między południowy zachód i zachodnio-północny zachód
Temperatura 21°C
Wilgotność 69%
Ciśnienie 1013 hPa
Widzialność 10 km lub więcej
Rozproszone chmury na wysokości 2800 ft
Przerywane chmury na wysokości 3700 ft
Przerywane chmury na wysokości 4500 ft

METAR: LFAQ 291130Z AUTO 25013KT 220V290 9999 SCT028 BKN037 BKN045 21/15 Q1013 NOSIG

czas: 14:03 (12:03 UTC)

Prognoza

Raport powstał 1 godzina i 3 minut temu, godzina 11:00 UTC
Prognoza ważna od 29 godzina 12 UTC do 29 godzina 21 UTC
Wiatr 10 kt od zachód
Widzialność 10 km lub więcej
Przerywane chmury na wysokości 2500 ft

TAF: LFAQ 291100Z 2912/2921 27010KT 9999 BKN025

METAR-TAF

Obserwacja i prognoza pogody dla ponad 4000 lotnisk (raport METAR i TAF).

Dostępne stacje oznaczono żółtymi i czerwonymi punktami na mapie.

Najedź kursorem aby zobaczyć nazwę stacji.

Kliknij aby zobaczyć obserwacje i prognozy pogody.

Aby zmienić mapę: kliknij na zielony przycisk z czarnym krzyżykiem, aby powiększyć; na zielony przycisk z myślnikiem, aby pomniejszyć; na zielone strzałki, aby przejść do map sąsiednich.


METAR-TAF: